createdAt,value
2019-01-14T00:00:44.190Z,70.18
2019-01-14T00:03:13.911Z,70.37
2019-01-14T00:05:43.403Z,70.69
2019-01-14T00:08:12.887Z,70.37
2019-01-14T00:10:42.378Z,70.53
2019-01-14T00:13:11.860Z,69.47
2019-01-14T00:15:41.373Z,69.47
2019-01-14T00:18:10.931Z,68.99
2019-01-14T00:20:40.431Z,69.02
2019-01-14T00:23:09.920Z,68.94
2019-01-14T00:25:39.489Z,68.63
2019-01-14T00:28:09.063Z,68.11
2019-01-14T00:30:38.625Z,67.82
2019-01-14T00:33:08.117Z,67.69
2019-01-14T00:35:37.609Z,67.77
2019-01-14T00:38:07.091Z,67.67
2019-01-14T00:40:36.599Z,67.42
2019-01-14T00:43:06.135Z,67.20
2019-01-14T00:45:35.637Z,67.68
2019-01-14T00:48:05.260Z,67.66
2019-01-14T00:50:34.788Z,67.55
2019-01-14T00:53:04.377Z,67.54
2019-01-14T00:55:33.872Z,67.04
2019-01-14T00:58:03.438Z,67.22
2019-01-14T01:00:33.092Z,66.74
2019-01-14T01:03:02.585Z,66.95
2019-01-14T01:05:32.084Z,66.15
2019-01-14T01:08:01.577Z,65.93
2019-01-14T01:10:31.090Z,66.32
2019-01-14T01:13:00.570Z,64.87
2019-01-14T01:15:30.066Z,65.72
2019-01-14T01:17:59.559Z,65.55
2019-01-14T01:20:30.307Z,65.08
2019-01-14T01:22:59.784Z,65.27
2019-01-14T01:25:29.276Z,65.56
2019-01-14T01:27:58.756Z,65.55
2019-01-14T01:30:28.257Z,65.44
2019-01-14T01:32:57.742Z,65.03
2019-01-14T01:35:27.223Z,65.56
2019-01-14T01:37:56.774Z,65.59
2019-01-14T01:40:26.249Z,65.43
2019-01-14T01:42:55.806Z,65.19
2019-01-14T01:45:25.294Z,65.25
2019-01-14T01:47:54.807Z,65.04
2019-01-14T01:50:24.352Z,64.42
2019-01-14T01:52:53.912Z,64.33
2019-01-14T01:55:23.393Z,64.47
2019-01-14T01:57:52.910Z,64.90
2019-01-14T02:00:22.472Z,64.11
2019-01-14T02:02:52.040Z,64.05
2019-01-14T02:05:21.531Z,64.03
2019-01-14T02:07:51.029Z,64.27
2019-01-14T02:10:22.218Z,64.64
2019-01-14T02:12:51.817Z,65.07
2019-01-14T02:15:22.119Z,65.22
2019-01-14T02:17:51.856Z,64.93
2019-01-14T02:20:21.578Z,65.26
2019-01-14T02:22:51.185Z,64.84
2019-01-14T02:25:20.673Z,65.21
2019-01-14T02:27:50.167Z,65.30
2019-01-14T02:30:23.320Z,65.12
2019-01-14T02:32:52.816Z,65.04
2019-01-14T02:35:22.390Z,65.47
2019-01-14T02:37:51.891Z,66.03
2019-01-14T02:40:24.434Z,66.15
2019-01-14T02:42:53.918Z,66.20
2019-01-14T02:45:23.414Z,65.48
2019-01-14T02:47:52.911Z,65.46
2019-01-14T02:50:22.405Z,65.61
2019-01-14T02:52:51.884Z,65.02
2019-01-14T02:55:21.361Z,65.17
2019-01-14T02:57:50.847Z,65.21
2019-01-14T03:00:26.037Z,65.33
2019-01-14T03:02:55.535Z,65.18
2019-01-14T03:05:25.023Z,65.24
2019-01-14T03:07:54.586Z,65.73
2019-01-14T03:10:24.090Z,64.86
2019-01-14T03:12:53.579Z,64.61
2019-01-14T03:15:23.063Z,64.24
2019-01-14T03:17:52.622Z,65.31
2019-01-14T03:20:22.107Z,65.52
2019-01-14T03:22:51.600Z,65.17
2019-01-14T03:25:21.089Z,65.08
2019-01-14T03:27:50.589Z,65.50
2019-01-14T03:30:20.202Z,64.99
2019-01-14T03:32:49.687Z,65.21
2019-01-14T03:35:19.160Z,64.45
2019-01-14T03:37:48.664Z,64.44
2019-01-14T03:40:18.616Z,64.40
2019-01-14T03:42:48.181Z,63.73
2019-01-14T03:45:17.803Z,63.88
2019-01-14T03:47:47.298Z,64.02
2019-01-14T03:50:21.955Z,63.67
2019-01-14T03:52:51.634Z,63.73
2019-01-14T03:55:22.168Z,63.78
2019-01-14T03:57:53.041Z,63.69
2019-01-14T04:00:22.545Z,63.31
2019-01-14T04:02:52.046Z,63.86
2019-01-14T04:05:21.531Z,64.25
2019-01-14T04:07:51.095Z,63.92
2019-01-14T04:10:20.578Z,63.77
2019-01-14T04:12:50.057Z,63.39
2019-01-14T04:15:20.265Z,63.44
2019-01-14T04:17:49.744Z,64.05
2019-01-14T04:20:19.747Z,63.82
2019-01-14T04:22:49.250Z,63.76
2019-01-14T04:25:19.842Z,63.91
2019-01-14T04:27:49.421Z,63.44
2019-01-14T04:30:21.072Z,63.69
2019-01-14T04:32:51.440Z,63.86
2019-01-14T04:35:23.269Z,64.06
2019-01-14T04:37:52.890Z,63.60
2019-01-14T04:40:22.400Z,63.64
2019-01-14T04:42:51.983Z,63.27
2019-01-14T04:45:21.469Z,63.25
2019-01-14T04:47:50.974Z,63.94
2019-01-14T04:50:22.480Z,63.55
2019-01-14T04:52:52.037Z,63.29
2019-01-14T04:55:21.652Z,63.20
2019-01-14T04:57:51.139Z,63.56
2019-01-14T05:00:22.906Z,63.77
2019-01-14T05:02:52.408Z,63.74
2019-01-14T05:05:22.140Z,64.09
2019-01-14T05:07:51.642Z,63.92
2019-01-14T05:10:21.548Z,63.94
2019-01-14T05:12:51.030Z,64.09
2019-01-14T05:15:20.619Z,64.65
2019-01-14T05:17:51.194Z,64.60
2019-01-14T05:20:22.870Z,64.69
2019-01-14T05:22:53.473Z,64.50
2019-01-14T05:25:23.029Z,64.03
2019-01-14T05:27:53.580Z,64.17
2019-01-14T05:30:23.173Z,63.99
2019-01-14T05:32:52.863Z,64.25
2019-01-14T05:35:22.436Z,64.15
2019-01-14T05:37:51.942Z,64.39
2019-01-14T05:40:23.590Z,64.30
2019-01-14T05:42:53.131Z,64.15
2019-01-14T05:45:22.632Z,63.86
2019-01-14T05:47:52.227Z,63.88
2019-01-14T05:50:21.733Z,64.17
2019-01-14T05:52:51.276Z,64.46
2019-01-14T05:55:21.533Z,64.19
2019-01-14T05:57:51.101Z,63.77
2019-01-14T06:00:23.494Z,63.94
2019-01-14T06:02:53.079Z,63.85
2019-01-14T06:05:22.580Z,63.58
2019-01-14T06:07:52.072Z,63.34
2019-01-14T06:10:21.557Z,63.62
2019-01-14T06:12:51.059Z,64.09
2019-01-14T06:15:20.557Z,64.62
2019-01-14T06:17:50.115Z,64.84
2019-01-14T06:20:21.082Z,67.91
2019-01-14T06:22:50.598Z,70.91
2019-01-14T06:25:20.147Z,72.66
2019-01-14T06:27:50.553Z,73.88
2019-01-14T06:30:22.309Z,74.81
2019-01-14T06:32:52.828Z,75.93
2019-01-14T06:35:22.437Z,76.02
2019-01-14T06:37:52.711Z,75.76
2019-01-14T06:40:22.745Z,75.71
2019-01-14T06:42:52.299Z,74.93
2019-01-14T06:45:21.979Z,74.74
2019-01-14T06:47:51.503Z,73.84
2019-01-14T06:50:21.129Z,72.76
2019-01-14T06:52:50.613Z,72.10
2019-01-14T06:55:20.521Z,71.79
2019-01-14T06:57:50.018Z,71.30
2019-01-14T07:00:25.339Z,71.65
2019-01-14T07:02:54.909Z,70.98
2019-01-14T07:05:24.607Z,71.16
2019-01-14T07:07:59.534Z,71.58
2019-01-14T07:10:27.589Z,71.46
2019-01-14T07:12:57.136Z,71.63
2019-01-14T07:15:26.621Z,72.82
2019-01-14T07:17:56.217Z,72.75
2019-01-14T07:20:25.791Z,72.44
2019-01-14T07:22:55.267Z,72.12
2019-01-14T07:25:24.942Z,72.03
2019-01-14T07:27:54.425Z,70.82
2019-01-14T07:30:24.030Z,70.53
2019-01-14T07:32:54.604Z,70.48
2019-01-14T07:35:24.087Z,70.30
2019-01-14T07:37:53.647Z,69.98
2019-01-14T07:40:24.181Z,69.50
2019-01-14T07:42:53.711Z,69.04
2019-01-14T07:45:23.201Z,68.89
2019-01-14T07:47:52.765Z,69.01
2019-01-14T07:50:22.742Z,69.02
2019-01-14T07:52:52.248Z,68.63
2019-01-14T07:55:21.830Z,68.48
2019-01-14T07:57:51.400Z,68.43
2019-01-14T08:00:25.879Z,68.59
2019-01-14T08:02:55.407Z,69.37
2019-01-14T08:05:24.911Z,71.35
2019-01-14T08:07:54.502Z,78.94
2019-01-14T08:10:24.064Z,79.87
2019-01-14T08:12:53.698Z,80.27
2019-01-14T08:15:24.195Z,81.67
2019-01-14T08:17:53.707Z,81.11
2019-01-14T08:20:23.189Z,80.91
2019-01-14T08:22:52.856Z,80.35
2019-01-14T08:25:22.417Z,79.04
2019-01-14T08:27:51.997Z,78.06
2019-01-14T08:30:23.003Z,77.45
2019-01-14T08:32:52.504Z,77.18
2019-01-14T08:35:22.167Z,75.17
2019-01-14T08:37:51.729Z,75.82
2019-01-14T08:40:21.254Z,74.68
2019-01-14T08:42:50.757Z,71.89
2019-01-14T08:45:20.245Z,71.12
2019-01-14T08:47:49.754Z,71.87
2019-01-14T08:50:20.864Z,71.57
2019-01-14T08:52:51.016Z,71.43
2019-01-14T08:55:20.587Z,71.70
2019-01-14T08:57:54.466Z,70.89
2019-01-14T09:00:22.599Z,70.04
2019-01-14T09:02:52.160Z,70.10
2019-01-14T09:05:21.748Z,70.03
2019-01-14T09:07:51.254Z,69.35
2019-01-14T09:10:23.381Z,69.68
2019-01-14T09:12:52.886Z,69.86
2019-01-14T09:15:22.426Z,69.41
2019-01-14T09:17:52.792Z,69.08
2019-01-14T09:20:24.197Z,68.59
2019-01-14T09:22:53.691Z,69.55
2019-01-14T09:25:23.308Z,69.13
2019-01-14T09:27:52.834Z,68.54
2019-01-14T09:30:24.310Z,67.94
2019-01-14T09:32:53.942Z,68.26
2019-01-14T09:35:23.454Z,67.93
2019-01-14T09:37:52.945Z,67.30
2019-01-14T09:40:24.084Z,67.77
2019-01-14T09:42:53.647Z,66.88
2019-01-14T09:45:23.193Z,67.60
2019-01-14T09:47:52.707Z,67.46
2019-01-14T09:50:22.272Z,67.77
2019-01-14T09:52:51.767Z,66.99
2019-01-14T09:55:21.324Z,66.96
2019-01-14T09:57:50.816Z,66.73
2019-01-14T10:00:20.301Z,67.14
2019-01-14T10:02:49.872Z,66.90
2019-01-14T10:05:19.947Z,66.70
2019-01-14T10:07:49.569Z,66.40
2019-01-14T10:10:19.800Z,66.53
2019-01-14T10:12:49.307Z,67.34
2019-01-14T10:15:20.962Z,66.26
2019-01-14T10:17:55.769Z,66.82
2019-01-14T10:20:25.285Z,67.12
2019-01-14T10:22:54.765Z,67.46
2019-01-14T10:25:24.661Z,67.07
2019-01-14T10:27:54.281Z,67.38
2019-01-14T10:30:23.769Z,66.82
2019-01-14T10:32:53.347Z,66.45
2019-01-14T10:35:22.869Z,65.94
2019-01-14T10:37:52.363Z,65.94
2019-01-14T10:40:21.952Z,66.29
2019-01-14T10:42:51.439Z,65.49
2019-01-14T10:45:22.328Z,65.22
2019-01-14T10:47:52.876Z,65.00
2019-01-14T10:50:22.481Z,64.31
2019-01-14T10:52:51.977Z,64.65
2019-01-14T10:55:21.489Z,63.66
2019-01-14T10:57:50.975Z,63.25
2019-01-14T11:00:25.355Z,62.84
2019-01-14T11:02:55.434Z,61.62
2019-01-14T11:05:27.945Z,62.28
2019-01-14T11:07:57.421Z,62.07
2019-01-14T11:10:27.015Z,61.13
2019-01-14T11:12:56.768Z,61.11
2019-01-14T11:15:26.344Z,60.52
2019-01-14T11:17:56.007Z,62.85
2019-01-14T11:20:27.772Z,63.98
2019-01-14T11:22:57.396Z,64.47
2019-01-14T11:25:27.262Z,63.39
2019-01-14T11:27:56.882Z,63.55
2019-01-14T11:30:31.806Z,63.16
2019-01-14T11:33:01.281Z,64.09
2019-01-14T11:35:30.947Z,64.53
2019-01-14T11:38:00.423Z,66.59
2019-01-14T11:40:38.862Z,66.74
2019-01-14T11:43:08.383Z,68.56
2019-01-14T11:45:37.975Z,69.50
2019-01-14T11:48:07.538Z,69.18
2019-01-14T11:50:37.540Z,68.84
2019-01-14T11:53:07.555Z,67.99
2019-01-14T11:55:37.337Z,67.44
2019-01-14T11:58:06.837Z,65.96
2019-01-14T12:00:37.041Z,65.33
2019-01-14T12:03:08.522Z,66.88
2019-01-14T12:05:39.348Z,68.34
2019-01-14T12:08:08.886Z,68.12
2019-01-14T12:10:38.550Z,64.94
2019-01-14T12:13:08.513Z,63.98
2019-01-14T12:15:43.635Z,63.31
2019-01-14T12:18:13.144Z,63.83
2019-01-14T12:20:42.795Z,64.80
2019-01-14T12:23:12.388Z,66.55
2019-01-14T12:25:45.153Z,66.08
2019-01-14T12:28:15.653Z,67.04
2019-01-14T12:30:45.216Z,66.91
2019-01-14T12:33:14.831Z,66.53
2019-01-14T12:35:44.434Z,67.32
2019-01-14T12:38:14.076Z,67.75
2019-01-14T12:40:43.628Z,67.01
2019-01-14T12:43:13.224Z,66.56
2019-01-14T12:45:42.847Z,66.13
2019-01-14T12:48:12.513Z,66.23
2019-01-14T12:50:42.006Z,65.92
2019-01-14T12:53:11.529Z,66.60
2019-01-14T12:55:41.225Z,65.31
2019-01-14T12:58:10.810Z,65.13
2019-01-14T13:00:40.375Z,65.01
2019-01-14T13:03:10.004Z,64.32
2019-01-14T13:05:41.110Z,63.62
2019-01-14T13:08:12.549Z,64.65
2019-01-14T13:10:42.231Z,64.59
2019-01-14T13:13:11.745Z,65.31
2019-01-14T13:15:41.290Z,64.35
2019-01-14T13:18:10.991Z,64.87
2019-01-14T13:20:40.512Z,64.76
2019-01-14T13:23:09.955Z,65.25
2019-01-14T13:25:39.543Z,64.29
2019-01-14T13:28:09.002Z,63.59
2019-01-14T13:30:38.516Z,63.31
2019-01-14T13:33:08.113Z,62.99
2019-01-14T13:35:37.633Z,61.93
2019-01-14T13:38:07.142Z,62.55
2019-01-14T13:40:36.658Z,62.90
2019-01-14T13:43:06.149Z,62.31
2019-01-14T13:45:35.655Z,62.61
2019-01-14T13:48:05.944Z,62.68
2019-01-14T13:50:35.428Z,62.66
2019-01-14T13:53:05.874Z,63.30
2019-01-14T13:55:35.490Z,64.93
2019-01-14T13:58:04.981Z,66.08
2019-01-14T14:00:34.517Z,67.17
2019-01-14T14:03:04.092Z,67.68
2019-01-14T14:05:33.573Z,68.15
2019-01-14T14:08:03.052Z,67.51
2019-01-14T14:10:32.835Z,67.77
2019-01-14T14:13:02.327Z,67.65
2019-01-14T14:15:31.915Z,67.39
2019-01-14T14:18:01.468Z,65.38
2019-01-14T14:20:31.096Z,66.41
2019-01-14T14:23:01.352Z,66.15
2019-01-14T14:25:30.890Z,65.50
2019-01-14T14:28:00.412Z,65.45
2019-01-14T14:30:35.436Z,66.38
2019-01-14T14:33:05.184Z,65.61
2019-01-14T14:35:34.704Z,65.48
2019-01-14T14:38:06.368Z,65.18
2019-01-14T14:40:35.877Z,64.96
2019-01-14T14:43:05.573Z,64.86
2019-01-14T14:45:35.152Z,64.58
2019-01-14T14:48:05.024Z,64.77
2019-01-14T14:50:35.485Z,65.46
2019-01-14T14:53:05.089Z,65.44
2019-01-14T14:55:34.679Z,65.39
2019-01-14T14:58:04.304Z,65.18
2019-01-14T15:00:34.002Z,65.75
2019-01-14T15:03:03.764Z,66.20
2019-01-14T15:05:33.242Z,66.67
2019-01-14T15:08:02.732Z,65.77
2019-01-14T15:10:32.239Z,65.58
2019-01-14T15:13:01.722Z,66.09
2019-01-14T15:15:31.287Z,65.16
2019-01-14T15:18:00.875Z,65.72
2019-01-14T15:20:30.490Z,65.46
2019-01-14T15:22:59.981Z,65.32
2019-01-14T15:25:29.547Z,64.57
2019-01-14T15:28:00.209Z,65.21
2019-01-14T15:30:31.426Z,65.21
2019-01-14T15:33:01.057Z,66.12
2019-01-14T15:35:30.616Z,66.41
2019-01-14T15:38:00.205Z,66.70
2019-01-14T15:40:29.809Z,66.59
2019-01-14T15:42:59.316Z,67.51
2019-01-14T15:45:29.015Z,67.59
2019-01-14T15:47:58.661Z,68.43
2019-01-14T15:50:28.216Z,67.92
2019-01-14T15:52:58.758Z,68.49
2019-01-14T15:55:28.367Z,68.14
2019-01-14T15:57:57.869Z,69.37
2019-01-14T16:00:27.659Z,70.10
2019-01-14T16:02:57.224Z,70.00
2019-01-14T16:05:26.751Z,69.05
2019-01-14T16:07:56.231Z,69.33
2019-01-14T16:10:26.492Z,69.77
2019-01-14T16:12:56.150Z,69.18
2019-01-14T16:15:25.807Z,68.73
2019-01-14T16:17:55.307Z,68.74
2019-01-14T16:20:26.163Z,68.61
2019-01-14T16:22:55.762Z,68.83
2019-01-14T16:25:26.313Z,68.88
2019-01-14T16:27:55.795Z,68.91
2019-01-14T16:30:26.738Z,68.59
2019-01-14T16:32:56.329Z,68.85
2019-01-14T16:35:25.824Z,68.81
2019-01-14T16:37:55.555Z,68.93
2019-01-14T16:40:25.144Z,68.65
2019-01-14T16:42:54.661Z,68.31
2019-01-14T16:45:27.699Z,68.32
2019-01-14T16:47:57.272Z,67.99
2019-01-14T16:50:26.768Z,68.13
2019-01-14T16:52:57.295Z,68.26
2019-01-14T16:55:37.098Z,68.12
2019-01-14T16:58:07.582Z,68.02
2019-01-14T17:00:37.092Z,68.29
2019-01-14T17:03:06.573Z,69.08
2019-01-14T17:05:36.118Z,69.53
2019-01-14T17:08:05.914Z,69.55
2019-01-14T17:10:35.422Z,69.34
2019-01-14T17:13:05.289Z,68.84
2019-01-14T17:15:34.840Z,68.23
2019-01-14T17:18:04.627Z,68.99
2019-01-14T17:20:35.102Z,67.04
2019-01-14T17:23:05.088Z,67.24
2019-01-14T17:25:34.619Z,67.34
2019-01-14T17:28:04.206Z,67.04
2019-01-14T17:30:33.743Z,67.18
2019-01-14T17:33:03.300Z,66.50
2019-01-14T17:35:32.819Z,66.33
2019-01-14T17:38:02.311Z,66.12
2019-01-14T17:40:32.779Z,65.90
2019-01-14T17:43:03.378Z,65.34
2019-01-14T17:45:32.871Z,65.23
2019-01-14T17:48:02.369Z,64.84
2019-01-14T17:50:31.852Z,64.46
2019-01-14T17:53:01.432Z,64.26
2019-01-14T17:55:31.019Z,64.46
2019-01-14T17:58:00.544Z,64.74
2019-01-14T18:00:30.125Z,65.38
2019-01-14T18:02:59.617Z,65.68
2019-01-14T18:05:29.096Z,65.24
2019-01-14T18:07:58.580Z,64.93
2019-01-14T18:10:28.148Z,65.05
2019-01-14T18:12:57.656Z,65.55
2019-01-14T18:15:27.257Z,65.73
2019-01-14T18:17:56.741Z,65.63
2019-01-14T18:20:26.226Z,66.55
2019-01-14T18:22:55.740Z,66.44
2019-01-14T18:25:25.289Z,66.23
2019-01-14T18:27:54.817Z,67.33
2019-01-14T18:30:24.443Z,66.96
2019-01-14T18:32:53.939Z,67.41
2019-01-14T18:35:23.449Z,67.04
2019-01-14T18:37:52.946Z,67.25
2019-01-14T18:40:23.322Z,67.53
2019-01-14T18:42:52.808Z,67.08
2019-01-14T18:45:22.285Z,66.96
2019-01-14T18:47:51.851Z,66.63
2019-01-14T18:50:22.674Z,66.23
2019-01-14T18:52:53.300Z,66.19
2019-01-14T18:55:22.943Z,66.68
2019-01-14T18:57:52.428Z,66.73
2019-01-14T19:00:23.669Z,67.50
2019-01-14T19:02:53.243Z,67.60
2019-01-14T19:05:22.804Z,67.45
2019-01-14T19:07:52.477Z,67.64
2019-01-14T19:10:22.027Z,67.44
2019-01-14T19:12:51.529Z,67.08
2019-01-14T19:15:21.374Z,66.68
2019-01-14T19:17:52.156Z,66.83
2019-01-14T19:20:26.691Z,66.60
2019-01-14T19:22:56.708Z,66.87
2019-01-14T19:25:26.307Z,66.54
2019-01-14T19:27:55.827Z,66.46
2019-01-14T19:30:25.328Z,66.66
2019-01-14T19:32:55.880Z,65.59
2019-01-14T19:35:25.450Z,65.35
2019-01-14T19:37:55.565Z,65.58
2019-01-14T19:40:25.116Z,65.23
2019-01-14T19:42:55.744Z,64.64
2019-01-14T19:45:25.463Z,64.61
2019-01-14T19:47:55.053Z,64.25
2019-01-14T19:50:25.182Z,64.79
2019-01-14T19:52:56.077Z,64.97
2019-01-14T19:55:26.649Z,65.13
2019-01-14T19:57:56.155Z,65.32
2019-01-14T20:00:29.688Z,65.81
2019-01-14T20:02:59.291Z,65.99
2019-01-14T20:05:28.874Z,65.91
2019-01-14T20:07:58.454Z,65.94
2019-01-14T20:10:28.110Z,66.09
2019-01-14T20:12:57.766Z,67.28
2019-01-14T20:15:27.258Z,67.48
2019-01-14T20:17:56.746Z,67.66
2019-01-14T20:20:26.245Z,67.47
2019-01-14T20:22:55.748Z,67.49
2019-01-14T20:25:25.355Z,67.21
2019-01-14T20:27:54.866Z,67.08
2019-01-14T20:30:25.114Z,66.73
2019-01-14T20:32:54.596Z,66.85
2019-01-14T20:35:24.078Z,66.20
2019-01-14T20:37:53.691Z,66.82
2019-01-14T20:40:23.241Z,67.64
2019-01-14T20:42:52.822Z,67.19
2019-01-14T20:45:22.444Z,65.78
2019-01-14T20:47:51.934Z,65.29
2019-01-14T20:50:21.847Z,64.58
2019-01-14T20:52:51.419Z,64.35
2019-01-14T20:55:21.429Z,64.15
2019-01-14T20:57:51.058Z,64.08
2019-01-14T21:00:23.697Z,64.09
2019-01-14T21:02:53.630Z,63.95
2019-01-14T21:05:24.525Z,63.81
2019-01-14T21:07:54.444Z,63.78
2019-01-14T21:10:24.046Z,64.61
2019-01-14T21:12:53.574Z,64.35
2019-01-14T21:15:23.170Z,64.52
2019-01-14T21:17:52.722Z,65.04
2019-01-14T21:20:23.994Z,64.71
2019-01-14T21:22:54.527Z,64.55
2019-01-14T21:25:24.239Z,65.39
2019-01-14T21:27:53.745Z,65.77
2019-01-14T21:30:26.012Z,65.47
2019-01-14T21:32:56.587Z,65.20
2019-01-14T21:35:26.095Z,64.47
2019-01-14T21:37:57.778Z,64.21
2019-01-14T21:40:27.300Z,63.92
2019-01-14T21:42:58.042Z,64.48
2019-01-14T21:45:27.547Z,64.38
2019-01-14T21:47:57.067Z,65.06
2019-01-14T21:50:26.566Z,65.46
2019-01-14T21:52:56.146Z,65.40
2019-01-14T21:55:26.398Z,65.10
2019-01-14T21:57:55.907Z,65.74
2019-01-14T22:00:25.802Z,65.71
2019-01-14T22:02:55.251Z,65.42
2019-01-14T22:05:24.759Z,65.14
2019-01-14T22:07:54.453Z,65.74
2019-01-14T22:10:26.068Z,66.27
2019-01-14T22:12:55.679Z,65.98
2019-01-14T22:15:25.323Z,66.48
2019-01-14T22:17:54.839Z,66.80
2019-01-14T22:20:28.824Z,67.21
2019-01-14T22:22:58.616Z,66.60
2019-01-14T22:25:28.183Z,66.73
2019-01-14T22:27:57.674Z,66.32
2019-01-14T22:30:29.710Z,66.88
2019-01-14T22:32:59.207Z,67.14
2019-01-14T22:35:28.723Z,67.01
2019-01-14T22:37:58.260Z,67.46
2019-01-14T22:40:27.742Z,67.18
2019-01-14T22:42:57.231Z,66.45
2019-01-14T22:45:26.799Z,66.38
2019-01-14T22:47:56.219Z,66.39
2019-01-14T22:50:25.734Z,65.50
2019-01-14T22:52:55.235Z,65.41
2019-01-14T22:55:24.738Z,65.73
2019-01-14T22:57:54.220Z,65.38
2019-01-14T23:00:51.352Z,65.87
2019-01-14T23:03:21.934Z,66.60
2019-01-14T23:05:51.503Z,66.46
2019-01-14T23:08:21.071Z,65.88
2019-01-14T23:10:50.932Z,65.63
2019-01-14T23:13:20.449Z,65.67
2019-01-14T23:15:50.030Z,65.89
2019-01-14T23:18:19.514Z,65.46
2019-01-14T23:20:49.001Z,65.49
2019-01-14T23:23:18.505Z,65.59
2019-01-14T23:25:48.011Z,66.00
2019-01-14T23:28:17.502Z,65.69
2019-01-14T23:30:47.004Z,66.55
2019-01-14T23:33:17.471Z,66.58
2019-01-14T23:35:46.990Z,66.33
2019-01-14T23:38:16.560Z,67.05
2019-01-14T23:40:46.077Z,67.02
2019-01-14T23:43:15.651Z,66.79
2019-01-14T23:45:45.216Z,66.56
2019-01-14T23:48:14.703Z,67.00
2019-01-14T23:50:44.196Z,67.10
2019-01-14T23:53:13.681Z,68.22
2019-01-14T23:55:43.174Z,67.78
2019-01-14T23:58:12.682Z,67.70
